createdAt,value
2018-11-02T00:00:52.218Z,4.00
2018-11-02T00:03:19.785Z,2.23
2018-11-02T00:05:47.361Z,11.37
2018-11-02T00:08:14.901Z,24.80
2018-11-02T00:10:42.470Z,2.37
2018-11-02T00:13:10.046Z,3.00
2018-11-02T00:15:37.599Z,2.20
2018-11-02T00:18:07.113Z,1.70
2018-11-02T00:20:34.691Z,1.83
2018-11-02T00:23:02.268Z,1.77
2018-11-02T00:25:29.802Z,1.63
2018-11-02T00:27:57.370Z,2.10
2018-11-02T00:30:24.943Z,1.60
2018-11-02T00:32:52.514Z,1.97
2018-11-02T00:35:20.046Z,1.77
2018-11-02T00:37:47.578Z,1.30
2018-11-02T00:40:15.154Z,1.80
2018-11-02T00:42:43.706Z,1.60
2018-11-02T00:45:11.246Z,1.50
2018-11-02T00:47:39.129Z,1.60
2018-11-02T00:50:06.709Z,1.80
2018-11-02T00:52:34.251Z,1.73
2018-11-02T00:55:01.842Z,2.77
2018-11-02T00:57:29.386Z,2.43
2018-11-02T00:59:56.971Z,2.20
2018-11-02T01:02:24.516Z,2.00
2018-11-02T01:04:52.095Z,2.80
2018-11-02T01:07:19.630Z,1.83
2018-11-02T01:09:49.141Z,1.67
2018-11-02T01:12:16.687Z,1.60
2018-11-02T01:14:44.263Z,1.70
2018-11-02T01:17:11.807Z,1.80
2018-11-02T01:19:39.359Z,1.63
2018-11-02T01:22:06.938Z,2.03
2018-11-02T01:24:34.479Z,1.63
2018-11-02T01:27:02.074Z,1.77
2018-11-02T01:29:29.614Z,1.80
2018-11-02T01:31:57.182Z,1.90
2018-11-02T01:34:24.734Z,1.90
2018-11-02T01:36:52.303Z,1.70
2018-11-02T01:39:20.814Z,1.87
2018-11-02T01:41:48.398Z,2.10
2018-11-02T01:44:15.943Z,2.00
2018-11-02T01:46:43.490Z,1.63
2018-11-02T01:49:11.074Z,1.77
2018-11-02T01:51:38.650Z,2.00
2018-11-02T01:54:06.239Z,1.83
2018-11-02T01:56:34.602Z,2.20
2018-11-02T01:59:02.165Z,2.00
2018-11-02T02:01:31.654Z,2.40
2018-11-02T02:03:59.230Z,2.60
2018-11-02T02:06:26.787Z,2.40
2018-11-02T02:08:54.357Z,2.30
2018-11-02T02:11:21.905Z,2.50
2018-11-02T02:13:49.448Z,5.77
2018-11-02T02:16:17.010Z,2.80
2018-11-02T02:18:44.550Z,2.47
2018-11-02T02:21:12.156Z,2.60
2018-11-02T02:23:39.720Z,3.10
2018-11-02T02:26:08.042Z,2.90
2018-11-02T02:28:37.569Z,2.50
2018-11-02T02:31:05.119Z,2.60
2018-11-02T02:33:32.694Z,1.97
2018-11-02T02:36:00.995Z,1.90
2018-11-02T02:38:28.704Z,2.10
2018-11-02T02:40:56.237Z,2.00
2018-11-02T02:43:25.732Z,2.33
2018-11-02T02:45:53.274Z,2.60
2018-11-02T02:48:20.813Z,1.97
2018-11-02T02:50:48.409Z,1.90
2018-11-02T02:53:15.950Z,2.07
2018-11-02T02:55:43.528Z,2.50
2018-11-02T02:58:11.106Z,2.30
2018-11-02T03:00:38.640Z,2.07
2018-11-02T03:03:06.198Z,2.40
2018-11-02T03:05:33.781Z,1.60
2018-11-02T03:08:01.356Z,2.23
2018-11-02T03:10:28.944Z,2.37
2018-11-02T03:12:56.511Z,2.30
2018-11-02T03:15:24.078Z,2.10
2018-11-02T03:17:51.660Z,2.40
2018-11-02T03:20:19.210Z,1.90
2018-11-02T03:22:46.747Z,2.30
2018-11-02T03:25:14.351Z,2.43
2018-11-02T03:27:41.902Z,2.60
2018-11-02T03:30:11.409Z,2.80
2018-11-02T03:32:38.964Z,2.87
2018-11-02T03:35:06.548Z,3.33
2018-11-02T03:37:34.087Z,3.00
2018-11-02T03:40:01.655Z,3.73
2018-11-02T03:42:29.196Z,4.20
2018-11-02T03:44:56.761Z,3.57
2018-11-02T03:47:25.081Z,3.20
2018-11-02T03:49:52.660Z,2.77
2018-11-02T03:52:20.198Z,2.40
2018-11-02T03:54:47.771Z,2.13
2018-11-02T03:57:15.310Z,3.00
2018-11-02T03:59:43.101Z,2.60
2018-11-02T04:02:10.645Z,2.73
2018-11-02T04:04:38.220Z,2.57
2018-11-02T04:07:05.767Z,2.80
2018-11-02T04:09:33.437Z,2.47
2018-11-02T04:12:00.950Z,2.50
2018-11-02T04:14:28.540Z,2.10
2018-11-02T04:16:56.082Z,2.00
2018-11-02T04:19:23.657Z,2.17
2018-11-02T04:21:51.266Z,2.10
2018-11-02T04:24:18.841Z,1.90
2018-11-02T04:26:48.127Z,1.90
2018-11-02T04:29:15.703Z,2.10
2018-11-02T04:31:43.274Z,2.27
2018-11-02T04:34:10.844Z,2.00
2018-11-02T04:36:38.385Z,2.17
2018-11-02T04:39:05.954Z,1.90
2018-11-02T04:41:34.507Z,2.20
2018-11-02T04:44:02.090Z,1.90
2018-11-02T04:46:29.631Z,2.30
2018-11-02T04:48:57.205Z,2.43
2018-11-02T04:51:24.774Z,2.30
2018-11-02T04:53:52.355Z,2.20
2018-11-02T04:56:20.667Z,2.20
2018-11-02T04:58:49.080Z,2.30
2018-11-02T05:01:17.378Z,1.97
2018-11-02T05:03:44.956Z,2.20
2018-11-02T05:06:12.508Z,1.90
2018-11-02T05:08:40.094Z,1.97
2018-11-02T05:11:08.446Z,1.83
2018-11-02T05:13:36.021Z,1.87
2018-11-02T05:16:03.568Z,2.10
2018-11-02T05:18:31.142Z,1.80
2018-11-02T05:20:59.483Z,2.23
2018-11-02T05:23:27.066Z,1.93
2018-11-02T05:25:54.609Z,2.10
2018-11-02T05:28:22.200Z,2.53
2018-11-02T05:30:49.759Z,2.87
2018-11-02T05:33:17.337Z,3.67
2018-11-02T05:35:44.881Z,2.93
2018-11-02T05:38:12.457Z,2.80
2018-11-02T05:40:39.992Z,2.70
2018-11-02T05:43:07.558Z,2.70
2018-11-02T05:45:35.098Z,2.97
2018-11-02T05:48:02.696Z,2.93
2018-11-02T05:50:30.263Z,3.03
2018-11-02T05:52:57.798Z,2.93
2018-11-02T05:55:25.386Z,3.00
2018-11-02T05:57:52.918Z,2.60
2018-11-02T06:00:20.501Z,2.57
2018-11-02T06:02:48.857Z,3.23
2018-11-02T06:05:16.437Z,3.40
2018-11-02T06:07:44.063Z,2.80
2018-11-02T06:10:11.610Z,3.93
2018-11-02T06:12:39.163Z,5.60
2018-11-02T06:15:06.747Z,4.63
2018-11-02T06:17:36.258Z,5.20
2018-11-02T06:20:04.937Z,4.55
2018-11-02T06:22:32.476Z,3.57
2018-11-02T06:25:00.048Z,3.80
2018-11-02T06:27:27.641Z,8.40
2018-11-02T06:29:55.978Z,7.30
2018-11-02T06:32:24.540Z,5.30
2018-11-02T06:34:53.082Z,8.30
2018-11-02T06:37:20.657Z,4.05
2018-11-02T06:39:48.234Z,3.53
2018-11-02T06:42:15.775Z,3.53
2018-11-02T06:44:43.458Z,3.37
2018-11-02T06:47:10.899Z,3.30
2018-11-02T06:49:38.524Z,3.20
2018-11-02T06:52:06.083Z,3.97
2018-11-02T06:54:33.667Z,4.00
2018-11-02T06:57:01.205Z,4.67
2018-11-02T06:59:28.941Z,3.90
2018-11-02T07:01:56.354Z,4.33
2018-11-02T07:04:23.934Z,3.27
2018-11-02T07:06:51.482Z,3.87
2018-11-02T07:09:21.032Z,4.20
2018-11-02T07:11:48.561Z,4.03
2018-11-02T07:14:16.129Z,4.40
2018-11-02T07:16:44.635Z,4.67
2018-11-02T07:19:14.971Z,3.77
2018-11-02T07:21:43.459Z,4.43
2018-11-02T07:24:11.037Z,4.07
2018-11-02T07:26:38.600Z,5.13
2018-11-02T07:29:06.194Z,5.43
2018-11-02T07:31:33.762Z,7.97
2018-11-02T07:34:01.334Z,6.03
2018-11-02T07:36:28.871Z,5.10
2018-11-02T07:38:56.447Z,5.57
2018-11-02T07:41:24.038Z,4.40
2018-11-02T07:43:51.621Z,4.80
2018-11-02T07:46:19.157Z,4.20
2018-11-02T07:48:46.732Z,5.13
2018-11-02T07:51:14.314Z,7.60
2018-11-02T07:53:41.882Z,4.50
2018-11-02T07:56:09.431Z,4.17
2018-11-02T07:58:37.004Z,3.50
2018-11-02T08:01:04.578Z,3.80
2018-11-02T08:03:32.162Z,5.80
2018-11-02T08:06:00.465Z,6.20
2018-11-02T08:08:28.047Z,5.20
2018-11-02T08:10:55.610Z,7.13
2018-11-02T08:13:23.179Z,5.67
2018-11-02T08:15:51.490Z,4.17
2018-11-02T08:18:19.054Z,4.13
2018-11-02T08:20:46.618Z,4.27
2018-11-02T08:23:14.181Z,3.73
2018-11-02T08:25:41.718Z,5.10
2018-11-02T08:28:11.234Z,4.87
2018-11-02T08:30:38.810Z,5.30
2018-11-02T08:33:06.378Z,4.70
2018-11-02T08:35:34.908Z,5.50
2018-11-02T08:38:02.476Z,4.80
2018-11-02T08:40:30.042Z,4.80
2018-11-02T08:42:57.615Z,5.57
2018-11-02T08:45:25.143Z,5.90
2018-11-02T08:47:53.598Z,9.20
2018-11-02T08:50:21.167Z,5.30
2018-11-02T08:52:50.674Z,5.60
2018-11-02T08:55:18.223Z,4.73
2018-11-02T08:57:45.834Z,5.97
2018-11-02T09:00:14.434Z,5.20
2018-11-02T09:02:41.951Z,7.40
2018-11-02T09:05:09.620Z,5.97
2018-11-02T09:07:37.105Z,10.17
2018-11-02T09:10:04.930Z,62.33
2018-11-02T09:12:32.507Z,37.97
2018-11-02T09:15:00.066Z,17.23
2018-11-02T09:17:27.644Z,6.40
2018-11-02T09:19:56.173Z,4.40
2018-11-02T09:22:23.737Z,7.40
2018-11-02T09:24:51.266Z,8.67
2018-11-02T09:27:18.881Z,7.73
2018-11-02T09:29:46.397Z,4.50
2018-11-02T09:32:13.963Z,3.90
2018-11-02T09:34:41.493Z,4.13
2018-11-02T09:37:09.070Z,3.80
2018-11-02T09:39:36.626Z,5.50
2018-11-02T09:42:04.206Z,4.40
2018-11-02T09:44:31.767Z,3.70
2018-11-02T09:46:59.317Z,4.37
2018-11-02T09:49:27.867Z,4.60
2018-11-02T09:51:55.477Z,9.80
2018-11-02T09:54:23.005Z,9.57
2018-11-02T09:56:50.591Z,6.17
2018-11-02T09:59:18.168Z,12.73
2018-11-02T10:01:46.531Z,4.67
2018-11-02T10:04:15.059Z,5.80
2018-11-02T10:06:42.643Z,8.97
2018-11-02T10:09:10.313Z,4.10
2018-11-02T10:11:37.813Z,4.47
2018-11-02T10:14:05.383Z,3.90
2018-11-02T10:16:32.978Z,3.80
2018-11-02T10:19:00.549Z,2.87
2018-11-02T10:21:28.155Z,9.50
2018-11-02T10:23:56.740Z,2.30
2018-11-02T10:26:25.074Z,11.60
2018-11-02T10:28:52.661Z,11.87
2018-11-02T10:31:20.223Z,16.33
2018-11-02T10:33:47.838Z,8.17
2018-11-02T10:36:15.410Z,6.33
2018-11-02T10:38:43.021Z,8.63
2018-11-02T10:41:10.602Z,6.40
2018-11-02T10:43:38.192Z,3.20
2018-11-02T10:46:06.524Z,2.73
2018-11-02T10:48:34.102Z,2.43
2018-11-02T10:51:01.651Z,2.40
2018-11-02T10:53:29.256Z,2.60
2018-11-02T10:55:56.814Z,2.07
2018-11-02T10:58:24.381Z,2.03
2018-11-02T11:00:53.069Z,2.00
2018-11-02T11:03:20.486Z,2.00
2018-11-02T11:05:48.999Z,2.10
2018-11-02T11:08:16.702Z,1.93
2018-11-02T11:10:44.246Z,2.43
2018-11-02T11:13:12.307Z,1.87
2018-11-02T11:15:39.397Z,2.40
2018-11-02T11:18:08.922Z,2.20
2018-11-02T11:20:36.481Z,1.77
2018-11-02T11:23:06.800Z,1.67
2018-11-02T11:25:40.166Z,1.70
2018-11-02T11:28:07.792Z,1.67
2018-11-02T11:30:35.359Z,2.00
2018-11-02T11:33:02.930Z,1.90
2018-11-02T11:35:30.528Z,2.50
2018-11-02T11:37:58.087Z,1.60
2018-11-02T11:40:25.651Z,1.70
2018-11-02T11:42:53.205Z,1.70
2018-11-02T11:45:22.376Z,1.90
2018-11-02T11:47:50.699Z,2.77
2018-11-02T11:50:18.286Z,2.30
2018-11-02T11:52:45.870Z,2.30
2018-11-02T11:55:13.423Z,2.53
2018-11-02T11:57:41.777Z,2.50
2018-11-02T12:00:09.369Z,2.83
2018-11-02T12:02:36.914Z,2.50
2018-11-02T12:05:04.590Z,2.40
2018-11-02T12:07:32.066Z,2.23
2018-11-02T12:09:59.649Z,1.60
2018-11-02T12:12:27.202Z,2.00
2018-11-02T12:14:54.810Z,1.57
2018-11-02T12:17:22.355Z,2.00
2018-11-02T12:19:49.950Z,2.30
2018-11-02T12:22:17.510Z,2.00
2018-11-02T12:24:45.092Z,1.93
2018-11-02T12:27:12.670Z,1.60
2018-11-02T12:29:40.245Z,1.97
2018-11-02T12:32:07.797Z,1.70
2018-11-02T12:34:36.320Z,1.70
2018-11-02T12:37:03.968Z,1.93
2018-11-02T12:39:31.481Z,1.97
2018-11-02T12:41:59.063Z,1.57
2018-11-02T12:44:27.402Z,1.60
2018-11-02T12:46:54.954Z,1.40
2018-11-02T12:49:22.910Z,1.50
2018-11-02T12:51:50.214Z,1.40
2018-11-02T12:54:17.814Z,1.70
2018-11-02T12:56:45.393Z,1.60
2018-11-02T12:59:12.971Z,2.40
2018-11-02T13:01:40.564Z,2.40
2018-11-02T13:04:08.146Z,2.33
2018-11-02T13:06:36.662Z,2.63
2018-11-02T13:09:04.256Z,2.60
2018-11-02T13:11:31.844Z,2.40
2018-11-02T13:13:59.426Z,1.80
2018-11-02T13:16:26.969Z,2.60
2018-11-02T13:18:54.605Z,1.93
2018-11-02T13:21:22.933Z,3.10
2018-11-02T13:23:50.518Z,2.80
2018-11-02T13:26:18.129Z,3.07
2018-11-02T13:28:45.692Z,2.20
2018-11-02T13:31:13.345Z,1.77
2018-11-02T13:33:40.874Z,1.60
2018-11-02T13:36:08.472Z,1.93
2018-11-02T13:38:37.963Z,1.60
2018-11-02T13:41:05.539Z,1.40
2018-11-02T13:43:33.181Z,1.70
2018-11-02T13:46:01.481Z,1.60
2018-11-02T13:48:29.037Z,1.30
2018-11-02T13:50:57.571Z,1.20
2018-11-02T13:53:25.190Z,1.60
2018-11-02T13:55:52.718Z,1.27
2018-11-02T13:58:20.301Z,1.23
2018-11-02T14:00:48.614Z,1.70
2018-11-02T14:03:16.212Z,1.60
2018-11-02T14:05:43.767Z,1.60
2018-11-02T14:08:11.356Z,1.20
2018-11-02T14:10:38.915Z,1.40
2018-11-02T14:13:07.271Z,2.07
2018-11-02T14:15:35.786Z,1.50
2018-11-02T14:18:03.362Z,3.00
2018-11-02T14:20:30.913Z,4.00
2018-11-02T14:22:58.496Z,3.53
2018-11-02T14:25:26.070Z,1.40
2018-11-02T14:27:53.655Z,2.00
2018-11-02T14:30:21.205Z,1.70
2018-11-02T14:32:48.788Z,2.17
2018-11-02T14:35:16.344Z,2.00
2018-11-02T14:37:43.949Z,1.97
2018-11-02T14:40:11.505Z,2.20
2018-11-02T14:42:39.071Z,2.07
2018-11-02T14:45:06.648Z,1.70
2018-11-02T14:47:36.161Z,2.33
2018-11-02T14:50:04.050Z,2.10
2018-11-02T14:52:31.599Z,1.80
2018-11-02T14:54:59.187Z,2.33
2018-11-02T14:57:26.778Z,2.53
2018-11-02T14:59:54.505Z,2.37
2018-11-02T15:02:21.947Z,2.53
2018-11-02T15:04:51.462Z,2.50
2018-11-02T15:07:19.042Z,2.77
2018-11-02T15:09:46.621Z,3.80
2018-11-02T15:12:14.170Z,3.43
2018-11-02T15:14:41.741Z,3.40
2018-11-02T15:17:09.321Z,3.40
2018-11-02T15:19:36.898Z,4.60
2018-11-02T15:22:04.442Z,4.23
2018-11-02T15:24:32.029Z,4.37
2018-11-02T15:26:59.606Z,5.00
2018-11-02T15:29:35.504Z,7.00
2018-11-02T15:32:03.928Z,5.40
2018-11-02T15:34:33.475Z,4.70
2018-11-02T15:37:02.996Z,4.40
2018-11-02T15:39:30.586Z,4.50
2018-11-02T15:41:58.142Z,4.20
2018-11-02T15:44:25.737Z,3.63
2018-11-02T15:46:53.321Z,3.90
2018-11-02T15:49:21.673Z,4.43
2018-11-02T15:51:49.210Z,3.70
2018-11-02T15:54:16.758Z,4.03
2018-11-02T15:56:44.347Z,3.90
2018-11-02T15:59:11.889Z,4.23
2018-11-02T16:01:39.466Z,3.70
2018-11-02T16:04:07.011Z,3.97
2018-11-02T16:06:34.593Z,3.97
2018-11-02T16:09:02.153Z,3.90
2018-11-02T16:11:29.742Z,4.83
2018-11-02T16:13:57.301Z,10.13
2018-11-02T16:16:24.892Z,4.13
2018-11-02T16:19:00.549Z,3.50
2018-11-02T16:21:28.150Z,10.87
2018-11-02T16:23:55.695Z,7.67
2018-11-02T16:26:23.337Z,3.80
2018-11-02T16:28:50.871Z,3.70
2018-11-02T16:31:18.453Z,4.97
2018-11-02T16:33:46.009Z,5.80
2018-11-02T16:36:14.373Z,5.83
2018-11-02T16:38:41.918Z,4.00
2018-11-02T16:41:09.494Z,4.07
2018-11-02T16:43:38.108Z,4.20
2018-11-02T16:46:06.586Z,4.63
2018-11-02T16:48:35.098Z,3.70
2018-11-02T16:51:02.690Z,4.40
2018-11-02T16:53:30.242Z,3.87
2018-11-02T16:55:57.823Z,3.53
2018-11-02T16:58:25.366Z,4.00
2018-11-02T17:00:52.962Z,5.33
2018-11-02T17:03:20.518Z,5.30
2018-11-02T17:05:48.146Z,4.40
2018-11-02T17:08:15.648Z,5.30
2018-11-02T17:10:43.246Z,5.60
2018-11-02T17:13:12.754Z,5.70
2018-11-02T17:15:40.313Z,5.20
2018-11-02T17:18:07.917Z,7.20
2018-11-02T17:20:35.449Z,6.87
2018-11-02T17:23:03.035Z,6.00
2018-11-02T17:25:30.570Z,5.63
2018-11-02T17:28:00.146Z,5.60
2018-11-02T17:30:28.667Z,6.00
2018-11-02T17:32:56.263Z,6.53
2018-11-02T17:35:23.819Z,9.60
2018-11-02T17:37:51.390Z,9.83
2018-11-02T17:40:18.958Z,9.33
2018-11-02T17:42:46.534Z,9.30
2018-11-02T17:45:14.136Z,9.27
2018-11-02T17:47:41.839Z,7.27
2018-11-02T17:50:09.290Z,6.53
2018-11-02T17:52:36.871Z,6.40
2018-11-02T17:55:04.477Z,6.73
2018-11-02T17:57:32.057Z,6.50
2018-11-02T17:59:59.626Z,7.03
2018-11-02T18:02:27.556Z,6.07
2018-11-02T18:04:55.219Z,7.00
2018-11-02T18:07:22.818Z,6.70
2018-11-02T18:09:51.155Z,7.07
2018-11-02T18:12:18.761Z,8.80
2018-11-02T18:14:46.304Z,11.33
2018-11-02T18:17:13.900Z,10.00
2018-11-02T18:19:41.554Z,8.60
2018-11-02T18:22:09.128Z,19.17
2018-11-02T18:24:36.709Z,15.80
2018-11-02T18:27:04.286Z,7.87
2018-11-02T18:29:31.862Z,8.00
2018-11-02T18:32:00.427Z,7.40
2018-11-02T18:34:28.006Z,7.40
2018-11-02T18:36:55.591Z,7.67
2018-11-02T18:39:23.174Z,7.20
2018-11-02T18:41:50.729Z,13.07
2018-11-02T18:44:18.316Z,17.53
2018-11-02T18:46:46.643Z,16.50
2018-11-02T18:49:14.221Z,12.20
2018-11-02T18:51:41.920Z,10.13
2018-11-02T18:54:10.266Z,8.40
2018-11-02T18:56:37.807Z,7.60
2018-11-02T18:59:07.330Z,6.70
2018-11-02T19:01:34.884Z,6.50
2018-11-02T19:04:02.474Z,6.47
2018-11-02T19:06:30.023Z,6.60
2018-11-02T19:08:57.596Z,8.40
2018-11-02T19:11:25.150Z,8.60
2018-11-02T19:13:52.737Z,8.60
2018-11-02T19:16:20.287Z,9.30
2018-11-02T19:18:47.920Z,9.70
2018-11-02T19:21:15.640Z,8.80
2018-11-02T19:23:43.200Z,7.53
2018-11-02T19:26:10.746Z,9.07
2018-11-02T19:28:38.339Z,8.90
2018-11-02T19:31:06.847Z,9.17
2018-11-02T19:33:34.442Z,10.83
2018-11-02T19:36:02.001Z,9.03
2018-11-02T19:38:29.827Z,7.13
2018-11-02T19:40:57.326Z,9.27
2018-11-02T19:43:24.918Z,7.10
2018-11-02T19:45:53.264Z,7.87
2018-11-02T19:48:20.836Z,10.10
2018-11-02T19:50:48.455Z,9.67
2018-11-02T19:53:16.015Z,8.67
2018-11-02T19:55:44.592Z,8.20
2018-11-02T19:58:12.188Z,9.23
2018-11-02T20:00:39.781Z,9.53
2018-11-02T20:03:07.379Z,8.17
2018-11-02T20:05:34.945Z,8.93
2018-11-02T20:08:02.564Z,9.80
2018-11-02T20:10:30.160Z,8.50
2018-11-02T20:12:57.723Z,11.30
2018-11-02T20:15:26.302Z,11.90
2018-11-02T20:17:53.954Z,12.00
2018-11-02T20:20:21.447Z,9.60
2018-11-02T20:22:53.899Z,7.90
2018-11-02T20:25:21.502Z,9.27
2018-11-02T20:27:49.809Z,9.07
2018-11-02T20:30:17.687Z,15.03
2018-11-02T20:32:45.241Z,7.73
2018-11-02T20:35:12.827Z,8.63
2018-11-02T20:37:40.374Z,9.17
2018-11-02T20:40:08.731Z,7.90
2018-11-02T20:42:36.279Z,8.07
2018-11-02T20:45:04.769Z,8.20
2018-11-02T20:47:32.319Z,8.10
2018-11-02T20:50:00.008Z,7.50
2018-11-02T20:52:28.507Z,7.23
2018-11-02T20:54:57.054Z,7.70
2018-11-02T20:57:24.642Z,7.97
2018-11-02T20:59:52.221Z,6.97
2018-11-02T21:02:20.769Z,7.90
2018-11-02T21:04:48.502Z,6.73
2018-11-02T21:07:16.117Z,9.13
2018-11-02T21:09:43.780Z,10.57
2018-11-02T21:12:11.269Z,9.83
2018-11-02T21:14:38.998Z,11.03
2018-11-02T21:17:06.455Z,8.57
2018-11-02T21:19:33.983Z,7.50
2018-11-02T21:22:01.669Z,6.23
2018-11-02T21:24:29.206Z,5.93
2018-11-02T21:26:56.754Z,5.40
2018-11-02T21:29:24.325Z,6.63
2018-11-02T21:31:51.934Z,7.53
2018-11-02T21:34:19.534Z,6.93
2018-11-02T21:36:47.084Z,7.07
2018-11-02T21:39:14.664Z,7.17
2018-11-02T21:41:48.836Z,6.23
2018-11-02T21:44:16.470Z,6.10
2018-11-02T21:46:44.009Z,6.27
2018-11-02T21:49:11.583Z,6.20
2018-11-02T21:51:40.129Z,5.90
2018-11-02T21:54:07.705Z,6.37
2018-11-02T21:56:35.286Z,6.13
2018-11-02T21:59:02.870Z,7.00
2018-11-02T22:01:30.455Z,8.33
2018-11-02T22:03:58.026Z,6.83
2018-11-02T22:06:25.590Z,5.43
2018-11-02T22:08:53.185Z,5.43
2018-11-02T22:11:20.853Z,5.37
2018-11-02T22:13:49.412Z,5.57
2018-11-02T22:16:17.878Z,5.50
2018-11-02T22:18:47.504Z,6.10
2018-11-02T22:21:15.790Z,6.70
2018-11-02T22:23:43.367Z,6.93
2018-11-02T22:26:11.891Z,6.77
2018-11-02T22:28:41.476Z,5.97
2018-11-02T22:31:09.118Z,6.37
2018-11-02T22:33:36.660Z,6.70
2018-11-02T22:36:04.205Z,6.47
2018-11-02T22:38:31.782Z,6.67
2018-11-02T22:40:59.372Z,6.70
2018-11-02T22:43:26.959Z,7.10
2018-11-02T22:45:54.624Z,7.20
2018-11-02T22:48:22.261Z,6.63
2018-11-02T22:50:49.772Z,6.27
2018-11-02T22:53:17.425Z,6.70
2018-11-02T22:55:45.006Z,7.30
2018-11-02T22:58:12.586Z,6.03
2018-11-02T23:00:40.895Z,6.17
2018-11-02T23:03:10.418Z,6.60
2018-11-02T23:05:38.029Z,6.70
2018-11-02T23:08:05.591Z,6.83
2018-11-02T23:10:33.143Z,6.47
2018-11-02T23:13:00.727Z,6.20
2018-11-02T23:15:28.497Z,6.50
2018-11-02T23:17:56.100Z,7.37
2018-11-02T23:20:23.660Z,7.27
2018-11-02T23:22:53.975Z,9.70
2018-11-02T23:25:21.558Z,7.33
2018-11-02T23:27:49.108Z,6.17
2018-11-02T23:30:16.828Z,6.53
2018-11-02T23:32:44.266Z,6.60
2018-11-02T23:35:12.358Z,6.40
2018-11-02T23:37:39.906Z,7.00
2018-11-02T23:40:08.332Z,6.23
2018-11-02T23:42:35.923Z,6.43
2018-11-02T23:45:05.543Z,6.63
2018-11-02T23:47:33.042Z,6.30
2018-11-02T23:50:00.624Z,5.70
2018-11-02T23:52:28.485Z,5.83
2018-11-02T23:54:56.061Z,7.00
2018-11-02T23:57:23.614Z,8.00
2018-11-02T23:59:51.202Z,7.07
